sensor_id;sensor_type;location;lat;lon;timestamp;P1;durP1;ratioP1;P2;durP2;ratioP2
62997;SDS011;55949;52.590;7.330;2023-04-25T00:00:25;16.55;;;5.45;;
62997;SDS011;55949;52.590;7.330;2023-04-25T00:01:26;23.70;;;4.80;;
62997;SDS011;55949;52.590;7.330;2023-04-25T00:02:27;20.40;;;5.38;;
62997;SDS011;55949;52.590;7.330;2023-04-25T00:03:28;20.48;;;4.22;;
62997;SDS011;55949;52.590;7.330;2023-04-25T00:04:29;19.55;;;5.75;;
62997;SDS011;55949;52.590;7.330;2023-04-25T00:05:30;26.48;;;4.95;;
62997;SDS011;55949;52.590;7.330;2023-04-25T00:06:34;20.17;;;5.93;;
62997;SDS011;55949;52.590;7.330;2023-04-25T00:07:36;17.77;;;4.68;;
62997;SDS011;55949;52.590;7.330;2023-04-25T00:08:36;19.33;;;4.88;;
62997;SDS011;55949;52.590;7.330;2023-04-25T00:09:37;28.85;;;4.85;;
62997;SDS011;55949;52.590;7.330;2023-04-25T00:10:38;23.35;;;6.25;;
62997;SDS011;55949;52.590;7.330;2023-04-25T00:11:39;15.40;;;4.20;;
62997;SDS011;55949;52.590;7.330;2023-04-25T00:12:40;23.67;;;5.45;;
62997;SDS011;55949;52.590;7.330;2023-04-25T00:13:41;23.27;;;5.65;;
62997;SDS011;55949;52.590;7.330;2023-04-25T00:14:42;17.65;;;6.53;;
62997;SDS011;55949;52.590;7.330;2023-04-25T00:15:43;19.13;;;4.97;;
62997;SDS011;55949;52.590;7.330;2023-04-25T00:16:46;18.80;;;6.38;;
62997;SDS011;55949;52.590;7.330;2023-04-25T00:17:48;22.38;;;5.47;;
62997;SDS011;55949;52.590;7.330;2023-04-25T00:18:49;23.08;;;5.15;;
62997;SDS011;55949;52.590;7.330;2023-04-25T00:19:53;20.98;;;5.45;;
62997;SDS011;55949;52.590;7.330;2023-04-25T00:20:54;22.58;;;7.30;;
62997;SDS011;55949;52.590;7.330;2023-04-25T00:21:55;21.42;;;6.30;;
62997;SDS011;55949;52.590;7.330;2023-04-25T00:22:56;17.15;;;5.68;;
62997;SDS011;55949;52.590;7.330;2023-04-25T00:23:57;16.25;;;5.68;;
62997;SDS011;55949;52.590;7.330;2023-04-25T00:24:57;19.35;;;4.20;;
62997;SDS011;55949;52.590;7.330;2023-04-25T00:26:00;12.85;;;5.80;;
62997;SDS011;55949;52.590;7.330;2023-04-25T00:27:01;21.92;;;5.47;;
62997;SDS011;55949;52.590;7.330;2023-04-25T00:28:01;14.93;;;9.52;;
62997;SDS011;55949;52.590;7.330;2023-04-25T00:29:02;18.90;;;5.40;;
62997;SDS011;55949;52.590;7.330;2023-04-25T00:30:03;17.65;;;5.82;;
62997;SDS011;55949;52.590;7.330;2023-04-25T00:31:04;17.52;;;3.78;;
62997;SDS011;55949;52.590;7.330;2023-04-25T00:32:05;13.98;;;4.13;;
62997;SDS011;55949;52.590;7.330;2023-04-25T00:33:06;16.27;;;3.88;;
62997;SDS011;55949;52.590;7.330;2023-04-25T00:34:07;18.42;;;4.22;;
62997;SDS011;55949;52.590;7.330;2023-04-25T00:35:08;20.40;;;3.47;;
62997;SDS011;55949;52.590;7.330;2023-04-25T00:36:09;21.05;;;5.22;;
62997;SDS011;55949;52.590;7.330;2023-04-25T00:37:11;18.13;;;5.93;;
62997;SDS011;55949;52.590;7.330;2023-04-25T00:38:12;19.23;;;3.70;;
62997;SDS011;55949;52.590;7.330;2023-04-25T00:39:13;13.13;;;3.40;;
62997;SDS011;55949;52.590;7.330;2023-04-25T00:40:14;16.60;;;3.75;;
62997;SDS011;55949;52.590;7.330;2023-04-25T00:41:15;17.40;;;5.38;;
62997;SDS011;55949;52.590;7.330;2023-04-25T00:42:16;15.27;;;3.38;;
62997;SDS011;55949;52.590;7.330;2023-04-25T00:43:16;18.33;;;4.25;;
62997;SDS011;55949;52.590;7.330;2023-04-25T00:44:17;18.25;;;3.63;;
62997;SDS011;55949;52.590;7.330;2023-04-25T00:45:18;11.13;;;3.53;;
62997;SDS011;55949;52.590;7.330;2023-04-25T00:46:19;16.95;;;3.80;;
62997;SDS011;55949;52.590;7.330;2023-04-25T00:47:20;14.52;;;3.83;;
62997;SDS011;55949;52.590;7.330;2023-04-25T00:48:21;20.40;;;5.15;;
62997;SDS011;55949;52.590;7.330;2023-04-25T00:49:22;21.85;;;4.43;;
62997;SDS011;55949;52.590;7.330;2023-04-25T00:50:23;13.15;;;3.40;;
62997;SDS011;55949;52.590;7.330;2023-04-25T00:51:24;17.75;;;3.97;;
62997;SDS011;55949;52.590;7.330;2023-04-25T00:52:26;15.05;;;3.60;;
62997;SDS011;55949;52.590;7.330;2023-04-25T00:53:27;16.13;;;3.22;;
62997;SDS011;55949;52.590;7.330;2023-04-25T00:54:29;11.80;;;3.30;;
62997;SDS011;55949;52.590;7.330;2023-04-25T00:55:30;15.10;;;3.60;;
62997;SDS011;55949;52.590;7.330;2023-04-25T00:56:32;16.83;;;3.75;;
62997;SDS011;55949;52.590;7.330;2023-04-25T00:57:33;21.65;;;4.68;;
62997;SDS011;55949;52.590;7.330;2023-04-25T00:58:34;14.77;;;3.35;;
62997;SDS011;55949;52.590;7.330;2023-04-25T00:59:35;18.15;;;5.07;;
62997;SDS011;55949;52.590;7.330;2023-04-25T01:00:37;16.33;;;3.88;;
62997;SDS011;55949;52.590;7.330;2023-04-25T01:01:39;12.48;;;3.75;;
62997;SDS011;55949;52.590;7.330;2023-04-25T01:02:40;15.35;;;3.67;;
62997;SDS011;55949;52.590;7.330;2023-04-25T01:03:42;12.90;;;3.10;;
62997;SDS011;55949;52.590;7.330;2023-04-25T01:04:45;13.82;;;3.40;;
62997;SDS011;55949;52.590;7.330;2023-04-25T01:05:45;20.17;;;3.78;;
62997;SDS011;55949;52.590;7.330;2023-04-25T01:06:46;21.45;;;3.88;;
62997;SDS011;55949;52.590;7.330;2023-04-25T01:07:48;14.70;;;4.47;;
62997;SDS011;55949;52.590;7.330;2023-04-25T01:08:49;14.70;;;3.22;;
62997;SDS011;55949;52.590;7.330;2023-04-25T01:09:51;17.13;;;3.67;;
62997;SDS011;55949;52.590;7.330;2023-04-25T01:10:52;11.68;;;5.20;;
62997;SDS011;55949;52.590;7.330;2023-04-25T01:11:53;14.70;;;4.40;;
62997;SDS011;55949;52.590;7.330;2023-04-25T01:12:53;20.77;;;4.03;;
62997;SDS011;55949;52.590;7.330;2023-04-25T01:13:54;13.20;;;3.72;;
62997;SDS011;55949;52.590;7.330;2023-04-25T01:14:55;14.82;;;3.50;;
62997;SDS011;55949;52.590;7.330;2023-04-25T01:15:56;19.15;;;3.58;;
62997;SDS011;55949;52.590;7.330;2023-04-25T01:16:59;16.52;;;3.55;;
62997;SDS011;55949;52.590;7.330;2023-04-25T01:18:00;16.02;;;3.25;;
62997;SDS011;55949;52.590;7.330;2023-04-25T01:19:03;14.73;;;3.97;;
62997;SDS011;55949;52.590;7.330;2023-04-25T01:20:12;12.38;;;3.22;;
62997;SDS011;55949;52.590;7.330;2023-04-25T01:21:14;14.80;;;4.65;;
62997;SDS011;55949;52.590;7.330;2023-04-25T01:22:15;12.43;;;3.45;;
62997;SDS011;55949;52.590;7.330;2023-04-25T01:23:16;23.38;;;3.63;;
62997;SDS011;55949;52.590;7.330;2023-04-25T01:24:18;14.90;;;3.88;;
62997;SDS011;55949;52.590;7.330;2023-04-25T01:25:19;12.00;;;4.05;;
62997;SDS011;55949;52.590;7.330;2023-04-25T01:26:20;16.55;;;4.00;;
62997;SDS011;55949;52.590;7.330;2023-04-25T01:27:22;18.75;;;4.97;;
62997;SDS011;55949;52.590;7.330;2023-04-25T01:28:22;16.73;;;4.13;;
62997;SDS011;55949;52.590;7.330;2023-04-25T01:29:23;22.40;;;3.83;;
62997;SDS011;55949;52.590;7.330;2023-04-25T01:30:25;14.50;;;3.67;;
62997;SDS011;55949;52.590;7.330;2023-04-25T01:31:27;16.40;;;4.32;;
62997;SDS011;55949;52.590;7.330;2023-04-25T01:32:29;19.88;;;3.38;;
62997;SDS011;55949;52.590;7.330;2023-04-25T01:33:38;11.07;;;3.35;;
62997;SDS011;55949;52.590;7.330;2023-04-25T01:34:38;18.38;;;4.20;;
62997;SDS011;55949;52.590;7.330;2023-04-25T01:35:39;15.18;;;4.10;;
62997;SDS011;55949;52.590;7.330;2023-04-25T01:36:40;18.77;;;3.88;;
62997;SDS011;55949;52.590;7.330;2023-04-25T01:37:41;17.42;;;3.72;;
62997;SDS011;55949;52.590;7.330;2023-04-25T01:38:43;19.02;;;4.68;;
62997;SDS011;55949;52.590;7.330;2023-04-25T01:39:46;20.23;;;4.70;;
62997;SDS011;55949;52.590;7.330;2023-04-25T01:40:47;21.30;;;4.15;;
62997;SDS011;55949;52.590;7.330;2023-04-25T01:41:50;14.93;;;3.58;;
62997;SDS011;55949;52.590;7.330;2023-04-25T01:42:51;16.75;;;3.58;;
62997;SDS011;55949;52.590;7.330;2023-04-25T01:43:52;18.10;;;3.83;;
62997;SDS011;55949;52.590;7.330;2023-04-25T01:44:54;19.60;;;3.92;;
62997;SDS011;55949;52.590;7.330;2023-04-25T01:45:54;17.17;;;4.40;;
62997;SDS011;55949;52.590;7.330;2023-04-25T01:46:56;21.58;;;5.30;;
62997;SDS011;55949;52.590;7.330;2023-04-25T01:47:57;15.85;;;3.78;;
62997;SDS011;55949;52.590;7.330;2023-04-25T01:48:59;16.50;;;3.58;;
62997;SDS011;55949;52.590;7.330;2023-04-25T01:50:01;18.40;;;3.75;;
62997;SDS011;55949;52.590;7.330;2023-04-25T01:51:02;16.25;;;3.22;;
62997;SDS011;55949;52.590;7.330;2023-04-25T01:52:03;22.33;;;4.88;;
62997;SDS011;55949;52.590;7.330;2023-04-25T01:53:04;21.35;;;3.83;;
62997;SDS011;55949;52.590;7.330;2023-04-25T01:54:06;20.95;;;4.32;;
62997;SDS011;55949;52.590;7.330;2023-04-25T01:55:07;18.52;;;3.90;;
62997;SDS011;55949;52.590;7.330;2023-04-25T01:56:08;17.98;;;4.35;;
62997;SDS011;55949;52.590;7.330;2023-04-25T01:57:10;14.02;;;3.85;;
62997;SDS011;55949;52.590;7.330;2023-04-25T01:58:12;16.52;;;4.45;;
62997;SDS011;55949;52.590;7.330;2023-04-25T01:59:12;15.90;;;4.20;;
62997;SDS011;55949;52.590;7.330;2023-04-25T02:00:13;14.00;;;3.95;;
62997;SDS011;55949;52.590;7.330;2023-04-25T02:01:14;19.40;;;3.50;;
62997;SDS011;55949;52.590;7.330;2023-04-25T02:02:15;13.98;;;3.97;;
62997;SDS011;55949;52.590;7.330;2023-04-25T02:03:16;22.20;;;4.18;;
62997;SDS011;55949;52.590;7.330;2023-04-25T02:04:16;16.98;;;3.20;;
62997;SDS011;55949;52.590;7.330;2023-04-25T02:05:17;20.90;;;4.40;;
62997;SDS011;55949;52.590;7.330;2023-04-25T02:06:18;14.57;;;3.35;;
62997;SDS011;55949;52.590;7.330;2023-04-25T02:07:18;13.35;;;3.70;;
62997;SDS011;55949;52.590;7.330;2023-04-25T02:08:19;14.68;;;3.67;;
62997;SDS011;55949;52.590;7.330;2023-04-25T02:09:20;22.63;;;3.83;;
62997;SDS011;55949;52.590;7.330;2023-04-25T02:10:20;15.32;;;3.33;;
62997;SDS011;55949;52.590;7.330;2023-04-25T02:11:21;16.23;;;3.97;;
62997;SDS011;55949;52.590;7.330;2023-04-25T02:12:22;14.18;;;4.55;;
62997;SDS011;55949;52.590;7.330;2023-04-25T02:13:23;19.73;;;4.20;;
62997;SDS011;55949;52.590;7.330;2023-04-25T02:14:23;16.48;;;3.55;;
62997;SDS011;55949;52.590;7.330;2023-04-25T02:15:24;24.15;;;4.47;;
62997;SDS011;55949;52.590;7.330;2023-04-25T02:16:25;16.90;;;4.43;;
62997;SDS011;55949;52.590;7.330;2023-04-25T02:17:25;21.52;;;4.30;;
62997;SDS011;55949;52.590;7.330;2023-04-25T02:18:26;16.80;;;3.72;;
62997;SDS011;55949;52.590;7.330;2023-04-25T02:19:27;15.27;;;3.80;;
62997;SDS011;55949;52.590;7.330;2023-04-25T02:20:28;19.13;;;4.78;;
62997;SDS011;55949;52.590;7.330;2023-04-25T02:21:30;15.60;;;3.72;;
62997;SDS011;55949;52.590;7.330;2023-04-25T02:22:31;9.95;;;4.50;;
62997;SDS011;55949;52.590;7.330;2023-04-25T02:23:33;18.75;;;4.90;;
62997;SDS011;55949;52.590;7.330;2023-04-25T02:24:34;15.15;;;4.00;;
62997;SDS011;55949;52.590;7.330;2023-04-25T02:25:35;11.63;;;3.80;;
62997;SDS011;55949;52.590;7.330;2023-04-25T02:26:36;24.67;;;5.00;;
62997;SDS011;55949;52.590;7.330;2023-04-25T02:27:36;13.20;;;4.68;;
62997;SDS011;55949;52.590;7.330;2023-04-25T02:28:37;10.55;;;4.05;;
62997;SDS011;55949;52.590;7.330;2023-04-25T02:29:38;21.15;;;4.40;;
62997;SDS011;55949;52.590;7.330;2023-04-25T02:30:39;14.02;;;3.42;;
62997;SDS011;55949;52.590;7.330;2023-04-25T02:31:39;13.15;;;4.28;;
62997;SDS011;55949;52.590;7.330;2023-04-25T02:32:40;16.05;;;4.38;;
62997;SDS011;55949;52.590;7.330;2023-04-25T02:33:41;13.77;;;3.72;;
62997;SDS011;55949;52.590;7.330;2023-04-25T02:34:43;16.05;;;4.15;;
62997;SDS011;55949;52.590;7.330;2023-04-25T02:35:43;19.25;;;4.50;;
62997;SDS011;55949;52.590;7.330;2023-04-25T02:36:44;18.90;;;3.75;;
62997;SDS011;55949;52.590;7.330;2023-04-25T02:37:45;18.73;;;4.05;;
62997;SDS011;55949;52.590;7.330;2023-04-25T02:38:45;16.02;;;4.13;;
62997;SDS011;55949;52.590;7.330;2023-04-25T02:39:46;13.63;;;4.40;;
62997;SDS011;55949;52.590;7.330;2023-04-25T02:40:47;19.55;;;4.53;;
62997;SDS011;55949;52.590;7.330;2023-04-25T02:41:47;18.80;;;4.82;;
62997;SDS011;55949;52.590;7.330;2023-04-25T02:42:48;16.80;;;3.88;;
62997;SDS011;55949;52.590;7.330;2023-04-25T02:43:48;14.07;;;3.55;;
62997;SDS011;55949;52.590;7.330;2023-04-25T02:44:49;17.33;;;4.30;;
62997;SDS011;55949;52.590;7.330;2023-04-25T02:45:50;16.63;;;4.55;;
62997;SDS011;55949;52.590;7.330;2023-04-25T02:46:51;18.35;;;4.68;;
62997;SDS011;55949;52.590;7.330;2023-04-25T02:47:51;14.27;;;4.05;;
62997;SDS011;55949;52.590;7.330;2023-04-25T02:48:52;25.98;;;4.70;;
62997;SDS011;55949;52.590;7.330;2023-04-25T02:49:53;17.10;;;4.20;;
62997;SDS011;55949;52.590;7.330;2023-04-25T02:50:53;15.00;;;3.15;;
62997;SDS011;55949;52.590;7.330;2023-04-25T02:51:54;16.13;;;4.43;;
62997;SDS011;55949;52.590;7.330;2023-04-25T02:52:55;14.00;;;3.65;;
62997;SDS011;55949;52.590;7.330;2023-04-25T02:53:55;12.82;;;4.57;;
62997;SDS011;55949;52.590;7.330;2023-04-25T02:54:56;13.48;;;3.60;;
62997;SDS011;55949;52.590;7.330;2023-04-25T02:55:57;20.30;;;4.07;;
62997;SDS011;55949;52.590;7.330;2023-04-25T02:56:59;7.57;;;3.97;;
62997;SDS011;55949;52.590;7.330;2023-04-25T02:58:00;17.40;;;4.00;;
62997;SDS011;55949;52.590;7.330;2023-04-25T02:59:01;21.80;;;4.63;;
62997;SDS011;55949;52.590;7.330;2023-04-25T03:00:02;11.27;;;3.75;;
62997;SDS011;55949;52.590;7.330;2023-04-25T03:01:05;16.88;;;3.67;;
62997;SDS011;55949;52.590;7.330;2023-04-25T03:02:05;13.70;;;3.78;;
62997;SDS011;55949;52.590;7.330;2023-04-25T03:03:06;16.38;;;4.63;;
62997;SDS011;55949;52.590;7.330;2023-04-25T03:04:06;9.95;;;3.92;;
62997;SDS011;55949;52.590;7.330;2023-04-25T03:05:07;11.50;;;3.50;;
62997;SDS011;55949;52.590;7.330;2023-04-25T03:06:08;19.35;;;4.25;;
62997;SDS011;55949;52.590;7.330;2023-04-25T03:07:09;17.33;;;4.53;;
62997;SDS011;55949;52.590;7.330;2023-04-25T03:08:10;20.13;;;4.18;;
62997;SDS011;55949;52.590;7.330;2023-04-25T03:09:11;15.73;;;3.30;;
62997;SDS011;55949;52.590;7.330;2023-04-25T03:10:12;16.48;;;3.97;;
62997;SDS011;55949;52.590;7.330;2023-04-25T03:11:13;15.00;;;4.13;;
62997;SDS011;55949;52.590;7.330;2023-04-25T03:12:13;10.77;;;3.72;;
62997;SDS011;55949;52.590;7.330;2023-04-25T03:13:15;22.08;;;4.53;;
62997;SDS011;55949;52.590;7.330;2023-04-25T03:14:16;17.10;;;4.38;;
62997;SDS011;55949;52.590;7.330;2023-04-25T03:15:16;16.33;;;4.72;;
62997;SDS011;55949;52.590;7.330;2023-04-25T03:16:17;13.50;;;3.85;;
62997;SDS011;55949;52.590;7.330;2023-04-25T03:17:18;11.50;;;4.50;;
62997;SDS011;55949;52.590;7.330;2023-04-25T03:18:19;15.13;;;4.45;;
62997;SDS011;55949;52.590;7.330;2023-04-25T03:19:19;17.00;;;4.07;;
62997;SDS011;55949;52.590;7.330;2023-04-25T03:20:20;18.23;;;4.85;;
62997;SDS011;55949;52.590;7.330;2023-04-25T03:21:21;16.23;;;4.05;;
62997;SDS011;55949;52.590;7.330;2023-04-25T03:22:22;15.07;;;4.00;;
62997;SDS011;55949;52.590;7.330;2023-04-25T03:23:22;10.48;;;4.30;;
62997;SDS011;55949;52.590;7.330;2023-04-25T03:24:23;13.00;;;3.95;;
62997;SDS011;55949;52.590;7.330;2023-04-25T03:25:24;17.27;;;4.00;;
62997;SDS011;55949;52.590;7.330;2023-04-25T03:26:25;17.63;;;5.10;;
62997;SDS011;55949;52.590;7.330;2023-04-25T03:27:26;15.68;;;4.35;;
62997;SDS011;55949;52.590;7.330;2023-04-25T03:28:26;14.52;;;4.43;;
62997;SDS011;55949;52.590;7.330;2023-04-25T03:29:27;11.63;;;4.65;;
62997;SDS011;55949;52.590;7.330;2023-04-25T03:30:28;13.27;;;4.43;;
62997;SDS011;55949;52.590;7.330;2023-04-25T03:31:29;11.65;;;3.63;;
62997;SDS011;55949;52.590;7.330;2023-04-25T03:32:30;14.00;;;4.10;;
62997;SDS011;55949;52.590;7.330;2023-04-25T03:33:32;16.38;;;4.13;;
62997;SDS011;55949;52.590;7.330;2023-04-25T03:34:32;13.43;;;4.10;;
62997;SDS011;55949;52.590;7.330;2023-04-25T03:35:33;14.63;;;3.70;;
62997;SDS011;55949;52.590;7.330;2023-04-25T03:36:34;16.42;;;4.85;;
62997;SDS011;55949;52.590;7.330;2023-04-25T03:37:35;22.75;;;4.50;;
62997;SDS011;55949;52.590;7.330;2023-04-25T03:38:35;8.20;;;3.90;;
62997;SDS011;55949;52.590;7.330;2023-04-25T03:39:36;14.25;;;3.80;;
62997;SDS011;55949;52.590;7.330;2023-04-25T03:40:37;9.60;;;4.38;;
62997;SDS011;55949;52.590;7.330;2023-04-25T03:41:38;13.45;;;3.88;;
62997;SDS011;55949;52.590;7.330;2023-04-25T03:42:38;13.80;;;4.05;;
62997;SDS011;55949;52.590;7.330;2023-04-25T03:43:39;18.95;;;4.82;;
62997;SDS011;55949;52.590;7.330;2023-04-25T03:44:40;14.57;;;4.95;;
62997;SDS011;55949;52.590;7.330;2023-04-25T03:45:40;14.55;;;5.30;;
62997;SDS011;55949;52.590;7.330;2023-04-25T03:46:41;17.98;;;4.10;;
62997;SDS011;55949;52.590;7.330;2023-04-25T03:47:42;13.00;;;3.78;;
62997;SDS011;55949;52.590;7.330;2023-04-25T03:48:42;15.82;;;3.90;;
62997;SDS011;55949;52.590;7.330;2023-04-25T03:49:43;11.93;;;3.67;;
62997;SDS011;55949;52.590;7.330;2023-04-25T03:50:44;11.98;;;4.05;;
62997;SDS011;55949;52.590;7.330;2023-04-25T03:51:45;11.30;;;3.58;;
62997;SDS011;55949;52.590;7.330;2023-04-25T03:52:45;17.88;;;4.25;;
62997;SDS011;55949;52.590;7.330;2023-04-25T03:53:47;13.68;;;4.30;;
62997;SDS011;55949;52.590;7.330;2023-04-25T03:54:47;15.23;;;3.75;;
62997;SDS011;55949;52.590;7.330;2023-04-25T03:55:48;6.60;;;3.10;;
62997;SDS011;55949;52.590;7.330;2023-04-25T03:56:49;11.45;;;3.75;;
62997;SDS011;55949;52.590;7.330;2023-04-25T03:57:49;14.95;;;3.53;;
62997;SDS011;55949;52.590;7.330;2023-04-25T03:58:50;10.55;;;4.57;;
62997;SDS011;55949;52.590;7.330;2023-04-25T03:59:51;12.85;;;4.07;;
62997;SDS011;55949;52.590;7.330;2023-04-25T04:00:51;10.13;;;3.22;;
62997;SDS011;55949;52.590;7.330;2023-04-25T04:01:52;16.27;;;4.75;;
62997;SDS011;55949;52.590;7.330;2023-04-25T04:02:53;19.73;;;4.43;;
62997;SDS011;55949;52.590;7.330;2023-04-25T04:03:53;18.20;;;4.93;;
62997;SDS011;55949;52.590;7.330;2023-04-25T04:04:54;13.05;;;4.60;;
62997;SDS011;55949;52.590;7.330;2023-04-25T04:05:56;12.85;;;5.38;;
62997;SDS011;55949;52.590;7.330;2023-04-25T04:06:57;10.25;;;3.65;;
62997;SDS011;55949;52.590;7.330;2023-04-25T04:07:58;14.50;;;3.85;;
62997;SDS011;55949;52.590;7.330;2023-04-25T04:08:59;17.52;;;4.32;;
62997;SDS011;55949;52.590;7.330;2023-04-25T04:09:59;14.40;;;3.97;;
62997;SDS011;55949;52.590;7.330;2023-04-25T04:11:00;17.85;;;4.28;;
62997;SDS011;55949;52.590;7.330;2023-04-25T04:12:01;15.05;;;4.18;;
62997;SDS011;55949;52.590;7.330;2023-04-25T04:13:02;16.20;;;4.57;;
62997;SDS011;55949;52.590;7.330;2023-04-25T04:14:03;22.67;;;4.25;;
62997;SDS011;55949;52.590;7.330;2023-04-25T04:15:07;16.95;;;4.10;;
62997;SDS011;55949;52.590;7.330;2023-04-25T04:16:09;7.53;;;2.97;;
62997;SDS011;55949;52.590;7.330;2023-04-25T04:17:10;12.35;;;3.85;;
62997;SDS011;55949;52.590;7.330;2023-04-25T04:18:11;8.48;;;2.97;;
62997;SDS011;55949;52.590;7.330;2023-04-25T04:19:11;15.52;;;3.97;;
62997;SDS011;55949;52.590;7.330;2023-04-25T04:20:12;17.10;;;4.55;;
62997;SDS011;55949;52.590;7.330;2023-04-25T04:21:13;6.72;;;2.90;;
62997;SDS011;55949;52.590;7.330;2023-04-25T04:22:13;12.20;;;3.45;;
62997;SDS011;55949;52.590;7.330;2023-04-25T04:23:14;14.48;;;3.67;;
62997;SDS011;55949;52.590;7.330;2023-04-25T04:24:15;12.45;;;3.80;;
62997;SDS011;55949;52.590;7.330;2023-04-25T04:25:16;12.93;;;3.45;;
62997;SDS011;55949;52.590;7.330;2023-04-25T04:26:18;14.80;;;3.92;;
62997;SDS011;55949;52.590;7.330;2023-04-25T04:27:18;12.05;;;4.00;;
62997;SDS011;55949;52.590;7.330;2023-04-25T04:28:19;2.97;;;1.85;;
62997;SDS011;55949;52.590;7.330;2023-04-25T04:29:21;13.52;;;3.40;;
62997;SDS011;55949;52.590;7.330;2023-04-25T04:30:23;16.42;;;3.80;;
62997;SDS011;55949;52.590;7.330;2023-04-25T04:31:24;12.18;;;3.63;;
62997;SDS011;55949;52.590;7.330;2023-04-25T04:32:25;21.77;;;4.15;;
62997;SDS011;55949;52.590;7.330;2023-04-25T04:33:25;16.17;;;3.72;;
62997;SDS011;55949;52.590;7.330;2023-04-25T04:34:26;17.17;;;4.05;;
62997;SDS011;55949;52.590;7.330;2023-04-25T04:35:27;12.00;;;3.45;;
62997;SDS011;55949;52.590;7.330;2023-04-25T04:36:27;14.68;;;3.53;;
62997;SDS011;55949;52.590;7.330;2023-04-25T04:37:28;12.40;;;4.20;;
62997;SDS011;55949;52.590;7.330;2023-04-25T04:38:29;10.00;;;2.92;;
62997;SDS011;55949;52.590;7.330;2023-04-25T04:39:31;14.57;;;3.58;;
62997;SDS011;55949;52.590;7.330;2023-04-25T04:40:31;10.95;;;3.60;;
62997;SDS011;55949;52.590;7.330;2023-04-25T04:41:32;10.63;;;3.05;;
62997;SDS011;55949;52.590;7.330;2023-04-25T04:42:33;20.48;;;3.67;;
62997;SDS011;55949;52.590;7.330;2023-04-25T04:43:33;13.60;;;3.22;;
62997;SDS011;55949;52.590;7.330;2023-04-25T04:44:34;10.07;;;3.22;;
62997;SDS011;55949;52.590;7.330;2023-04-25T04:45:35;15.30;;;3.40;;
62997;SDS011;55949;52.590;7.330;2023-04-25T04:46:38;10.48;;;3.50;;
62997;SDS011;55949;52.590;7.330;2023-04-25T04:47:40;13.68;;;3.50;;
62997;SDS011;55949;52.590;7.330;2023-04-25T04:48:41;7.70;;;3.13;;
62997;SDS011;55949;52.590;7.330;2023-04-25T04:49:42;7.38;;;2.80;;
62997;SDS011;55949;52.590;7.330;2023-04-25T04:50:44;11.88;;;3.25;;
62997;SDS011;55949;52.590;7.330;2023-04-25T04:51:45;11.40;;;3.10;;
62997;SDS011;55949;52.590;7.330;2023-04-25T04:52:46;11.68;;;3.00;;
62997;SDS011;55949;52.590;7.330;2023-04-25T04:53:47;14.52;;;2.88;;
62997;SDS011;55949;52.590;7.330;2023-04-25T04:54:48;8.43;;;3.05;;
62997;SDS011;55949;52.590;7.330;2023-04-25T04:55:49;15.50;;;2.88;;
62997;SDS011;55949;52.590;7.330;2023-04-25T04:56:49;10.05;;;3.60;;
62997;SDS011;55949;52.590;7.330;2023-04-25T04:57:52;12.23;;;2.92;;
62997;SDS011;55949;52.590;7.330;2023-04-25T04:58:52;17.10;;;3.20;;
62997;SDS011;55949;52.590;7.330;2023-04-25T04:59:53;9.40;;;2.53;;
62997;SDS011;55949;52.590;7.330;2023-04-25T05:00:54;10.80;;;2.53;;
62997;SDS011;55949;52.590;7.330;2023-04-25T05:01:55;10.73;;;2.50;;
62997;SDS011;55949;52.590;7.330;2023-04-25T05:02:56;13.45;;;2.47;;
62997;SDS011;55949;52.590;7.330;2023-04-25T05:03:57;12.63;;;2.55;;
62997;SDS011;55949;52.590;7.330;2023-04-25T05:05:00;10.32;;;2.47;;
62997;SDS011;55949;52.590;7.330;2023-04-25T05:06:00;8.20;;;1.98;;
62997;SDS011;55949;52.590;7.330;2023-04-25T05:07:02;15.80;;;3.17;;
62997;SDS011;55949;52.590;7.330;2023-04-25T05:08:03;6.80;;;2.13;;
62997;SDS011;55949;52.590;7.330;2023-04-25T05:09:03;10.13;;;2.35;;
62997;SDS011;55949;52.590;7.330;2023-04-25T05:10:04;11.50;;;3.28;;
62997;SDS011;55949;52.590;7.330;2023-04-25T05:11:06;10.75;;;2.78;;
62997;SDS011;55949;52.590;7.330;2023-04-25T05:12:06;9.63;;;2.25;;
62997;SDS011;55949;52.590;7.330;2023-04-25T05:13:07;12.52;;;2.50;;
62997;SDS011;55949;52.590;7.330;2023-04-25T05:14:08;11.55;;;2.30;;
62997;SDS011;55949;52.590;7.330;2023-04-25T05:15:08;12.23;;;2.20;;
62997;SDS011;55949;52.590;7.330;2023-04-25T05:16:09;7.78;;;2.17;;
62997;SDS011;55949;52.590;7.330;2023-04-25T05:17:10;10.60;;;2.30;;
62997;SDS011;55949;52.590;7.330;2023-04-25T05:18:11;14.20;;;1.98;;
62997;SDS011;55949;52.590;7.330;2023-04-25T05:19:12;13.52;;;2.72;;
62997;SDS011;55949;52.590;7.330;2023-04-25T05:20:13;12.60;;;2.30;;
62997;SDS011;55949;52.590;7.330;2023-04-25T05:21:14;13.02;;;2.78;;
62997;SDS011;55949;52.590;7.330;2023-04-25T05:22:14;11.75;;;2.28;;
62997;SDS011;55949;52.590;7.330;2023-04-25T05:23:16;23.27;;;3.17;;
62997;SDS011;55949;52.590;7.330;2023-04-25T05:24:16;13.35;;;2.35;;
62997;SDS011;55949;52.590;7.330;2023-04-25T05:25:17;11.98;;;2.53;;
62997;SDS011;55949;52.590;7.330;2023-04-25T05:26:18;6.85;;;1.88;;
62997;SDS011;55949;52.590;7.330;2023-04-25T05:27:20;4.72;;;2.40;;
62997;SDS011;55949;52.590;7.330;2023-04-25T05:28:21;13.73;;;3.08;;
62997;SDS011;55949;52.590;7.330;2023-04-25T05:29:22;7.65;;;2.72;;
62997;SDS011;55949;52.590;7.330;2023-04-25T05:30:23;5.68;;;2.38;;
62997;SDS011;55949;52.590;7.330;2023-04-25T05:31:24;9.30;;;2.97;;
62997;SDS011;55949;52.590;7.330;2023-04-25T05:32:27;6.57;;;2.00;;
62997;SDS011;55949;52.590;7.330;2023-04-25T05:33:27;9.35;;;2.42;;
62997;SDS011;55949;52.590;7.330;2023-04-25T05:34:28;5.57;;;2.05;;
62997;SDS011;55949;52.590;7.330;2023-04-25T05:35:30;8.00;;;2.28;;
62997;SDS011;55949;52.590;7.330;2023-04-25T05:36:31;15.13;;;3.58;;
62997;SDS011;55949;52.590;7.330;2023-04-25T05:37:32;15.88;;;2.20;;
62997;SDS011;55949;52.590;7.330;2023-04-25T05:38:33;15.73;;;2.35;;
62997;SDS011;55949;52.590;7.330;2023-04-25T05:39:34;10.65;;;2.53;;
62997;SDS011;55949;52.590;7.330;2023-04-25T05:40:34;8.25;;;1.83;;
62997;SDS011;55949;52.590;7.330;2023-04-25T05:41:35;9.60;;;2.58;;
62997;SDS011;55949;52.590;7.330;2023-04-25T05:42:36;11.68;;;2.67;;
62997;SDS011;55949;52.590;7.330;2023-04-25T05:43:37;9.18;;;2.78;;
62997;SDS011;55949;52.590;7.330;2023-04-25T05:44:38;11.75;;;2.35;;
62997;SDS011;55949;52.590;7.330;2023-04-25T05:45:39;5.03;;;1.58;;
62997;SDS011;55949;52.590;7.330;2023-04-25T05:46:40;8.07;;;3.55;;
62997;SDS011;55949;52.590;7.330;2023-04-25T05:47:41;9.10;;;2.42;;
62997;SDS011;55949;52.590;7.330;2023-04-25T05:48:42;13.57;;;2.53;;
62997;SDS011;55949;52.590;7.330;2023-04-25T05:49:43;20.75;;;2.08;;
62997;SDS011;55949;52.590;7.330;2023-04-25T05:50:44;7.95;;;1.70;;
62997;SDS011;55949;52.590;7.330;2023-04-25T05:51:45;12.75;;;3.00;;
62997;SDS011;55949;52.590;7.330;2023-04-25T05:52:46;7.03;;;1.70;;
62997;SDS011;55949;52.590;7.330;2023-04-25T05:53:46;10.27;;;2.22;;
62997;SDS011;55949;52.590;7.330;2023-04-25T05:54:47;5.45;;;2.00;;
62997;SDS011;55949;52.590;7.330;2023-04-25T05:55:48;11.00;;;2.72;;
62997;SDS011;55949;52.590;7.330;2023-04-25T05:56:49;8.20;;;2.28;;
62997;SDS011;55949;52.590;7.330;2023-04-25T05:57:52;12.45;;;1.92;;
62997;SDS011;55949;52.590;7.330;2023-04-25T05:58:53;7.45;;;1.92;;
62997;SDS011;55949;52.590;7.330;2023-04-25T05:59:54;12.98;;;1.83;;
62997;SDS011;55949;52.590;7.330;2023-04-25T06:00:55;6.78;;;1.40;;
62997;SDS011;55949;52.590;7.330;2023-04-25T06:01:56;9.10;;;2.33;;
62997;SDS011;55949;52.590;7.330;2023-04-25T06:03:00;9.07;;;2.25;;